Time;durP1;ratioP1;P1;durP2;ratioP2;P2;SDS_P1;SDS_P2;PMS_P1;PMS_P2;Temp;Humidity;BMP_temperature;BMP_pressure;BME280_temperature;BME280_humidity;BME280_pressure;Samples;Min_cycle;Max_cycle;Signal;HPM_P1;HPM_P2
2023/11/14 00:02:08;;;;;;;;;1.00;1.00;;;;;12.40;90.32;100830.13;5057974;28;45651;-67
2023/11/14 00:04:34;;;;;;;;;6.00;3.00;;;;;12.37;90.02;100832.97;5064244;28;45735;-67
2023/11/14 00:07:02;;;;;;;;;3.67;2.00;;;;;12.37;89.21;100827.63;5058597;28;45552;-66
2023/11/14 00:09:28;;;;;;;;;3.00;1.00;;;;;12.35;89.08;100834.00;5054393;28;45429;-67
2023/11/14 00:11:53;;;;;;;;;1.00;0.33;;;;;12.34;89.48;100837.63;5057870;28;51341;-68
2023/11/14 00:14:21;;;;;;;;;3.67;1.00;;;;;12.32;88.54;100842.16;5058942;28;45318;-67
2023/11/14 00:16:46;;;;;;;;;3.00;3.00;;;;;12.32;89.17;100823.50;5058423;28;45612;-67
2023/11/14 00:19:12;;;;;;;;;1.67;1.33;;;;;12.31;89.37;100830.66;5056933;28;45574;-67
2023/11/14 00:21:38;;;;;;;;;2.00;1.00;;;;;12.31;88.99;100830.66;5058729;28;48068;-67
2023/11/14 00:24:03;;;;;;;;;5.00;3.00;;;;;12.32;88.76;100819.03;5063350;28;45399;-67
2023/11/14 00:26:29;;;;;;;;;2.67;1.33;;;;;12.31;88.73;100825.31;5058207;28;45554;-67
2023/11/14 00:28:54;;;;;;;;;6.00;2.00;;;;;12.33;88.77;100826.09;5089908;27;67530;-67
2023/11/14 00:31:19;;;;;;;;;3.00;1.33;;;;;12.34;88.92;100832.28;5060317;28;45488;-68
2023/11/14 00:33:45;;;;;;;;;1.00;1.00;;;;;12.33;88.56;100826.09;5058409;28;45392;-67
2023/11/14 00:36:10;;;;;;;;;3.33;1.00;;;;;12.35;88.74;100845.53;5055653;28;68004;-68
2023/11/14 00:38:35;;;;;;;;;1.67;1.67;;;;;12.36;88.34;100849.91;5058371;28;46373;-67
2023/11/14 00:41:01;;;;;;;;;1.00;1.00;;;;;12.38;88.36;100845.38;5057510;28;56045;-67
2023/11/14 00:43:27;;;;;;;;;1.33;0.67;;;;;12.40;88.19;100853.28;5058080;28;45406;-67
2023/11/14 00:45:52;;;;;;;;;3.00;1.00;;;;;12.40;88.38;100838.13;5057670;28;45324;-67
2023/11/14 00:48:17;;;;;;;;;4.00;0.33;;;;;12.39;87.95;100836.41;5057793;28;58231;-67
2023/11/14 00:50:43;;;;;;;;;3.00;1.67;;;;;12.38;87.73;100836.50;5057769;28;57714;-67
2023/11/14 00:53:08;;;;;;;;;1.33;1.00;;;;;12.38;87.27;100826.69;5057573;28;45486;-67
2023/11/14 00:55:33;;;;;;;;;2.00;1.00;;;;;12.37;87.41;100818.75;5057768;28;69146;-68
2023/11/14 00:57:59;;;;;;;;;0.67;0.67;;;;;12.37;87.66;100829.44;5056501;28;45574;-67
2023/11/14 01:00:25;;;;;;;;;3.00;2.00;;;;;12.37;87.79;100854.31;5058513;28;45803;-68
2023/11/14 01:02:53;;;;;;;;;3.00;2.00;;;;;12.37;88.04;100854.31;5066487;28;45379;-67
2023/11/14 01:05:18;;;;;;;;;2.00;1.00;;;;;12.37;87.57;100864.97;5060631;28;45288;-67
2023/11/14 01:07:44;;;;;;;;;1.33;1.00;;;;;12.38;87.66;100864.03;5061364;28;45379;-67
2023/11/14 01:10:11;;;;;;;;;2.33;1.00;;;;;12.40;87.51;100874.63;5060525;28;45310;-68
2023/11/14 01:12:36;;;;;;;;;1.00;1.00;;;;;12.42;87.58;100878.03;5063183;28;45450;-68
2023/11/14 01:15:02;;;;;;;;;0.00;0.00;;;;;12.43;87.30;100879.75;5060903;28;45464;-68
2023/11/14 01:17:28;;;;;;;;;3.00;1.00;;;;;12.44;87.74;100893.94;5063410;28;45382;-68
2023/11/14 01:19:53;;;;;;;;;4.00;1.67;;;;;12.43;87.49;100894.94;5072138;28;45956;-67
2023/11/14 01:22:18;;;;;;;;;3.00;2.00;;;;;12.41;87.72;100895.88;5061921;28;45560;-68
2023/11/14 01:24:44;;;;;;;;;2.00;1.00;;;;;12.38;87.17;100912.06;5060934;28;45643;-67
2023/11/14 01:27:09;;;;;;;;;2.33;1.00;;;;;12.36;87.56;100927.28;5093148;27;45470;-67
2023/11/14 01:29:35;;;;;;;;;2.00;1.67;;;;;12.34;87.18;100918.47;5060160;28;45443;-67
2023/11/14 01:32:00;;;;;;;;;4.33;0.00;;;;;12.33;87.17;100919.44;5060184;28;45441;-67
2023/11/14 01:34:26;;;;;;;;;1.00;1.00;;;;;12.34;87.54;100920.28;5070893;28;45263;-67
2023/11/14 01:36:55;;;;;;;;;1.67;1.00;;;;;12.33;87.67;100919.44;5090081;27;45267;-67
2023/11/14 01:39:21;;;;;;;;;4.00;2.00;;;;;12.32;87.29;100930.19;5060538;28;46268;-67
2023/11/14 01:41:47;;;;;;;;;3.67;1.00;;;;;12.31;87.70;100924.00;5061175;28;45345;-68
2023/11/14 01:44:12;;;;;;;;;0.67;0.67;;;;;12.30;87.49;100922.25;5056677;28;45298;-67
2023/11/14 01:46:38;;;;;;;;;2.33;1.00;;;;;12.31;87.63;100925.81;5067956;28;45430;-67
2023/11/14 01:49:03;;;;;;;;;3.00;1.00;;;;;12.30;87.77;100938.25;5057670;28;75879;-67
2023/11/14 01:51:29;;;;;;;;;5.00;1.00;;;;;12.31;87.45;100929.31;5093407;27;45173;-68
2023/11/14 01:53:57;;;;;;;;;2.00;2.00;;;;;12.31;87.52;100917.81;5092733;27;45447;-68
2023/11/14 01:56:23;;;;;;;;;1.00;1.00;;;;;12.31;87.66;100916.00;5058646;28;45562;-67
2023/11/14 01:58:50;;;;;;;;;1.00;1.00;;;;;12.30;87.24;100908.94;5057971;28;63567;-67
2023/11/14 02:01:15;;;;;;;;;0.67;0.67;;;;;12.29;87.43;100907.19;5059991;28;45401;-67
2023/11/14 02:03:42;;;;;;;;;1.00;1.00;;;;;12.31;87.73;100908.00;5059378;28;69309;-67
2023/11/14 02:06:08;;;;;;;;;5.00;0.00;;;;;12.33;87.71;100916.78;5058694;28;69100;-67
2023/11/14 02:08:34;;;;;;;;;7.67;2.33;;;;;12.34;87.61;100922.97;5052175;28;45461;-67
2023/11/14 02:11:00;;;;;;;;;3.00;2.00;;;;;12.34;87.44;100934.47;5066897;28;73051;-67
2023/11/14 02:13:26;;;;;;;;;3.67;1.33;;;;;12.34;87.42;100945.16;5067070;28;45300;-67
2023/11/14 02:15:51;;;;;;;;;2.33;2.33;;;;;12.35;87.60;100935.34;5060247;28;45429;-67
2023/11/14 02:18:18;;;;;;;;;1.00;1.00;;;;;12.34;87.66;100925.63;5060300;28;45595;-67
2023/11/14 02:20:44;;;;;;;;;4.00;1.67;;;;;12.34;87.64;100925.63;5058627;28;45488;-67
2023/11/14 02:23:11;;;;;;;;;3.00;2.00;;;;;12.33;87.62;100927.44;5059901;28;45330;-67
2023/11/14 02:25:36;;;;;;;;;3.00;1.00;;;;;12.34;87.64;100923.81;5060322;28;45487;-67
2023/11/14 02:28:02;;;;;;;;;3.33;2.00;;;;;12.33;87.71;100927.44;5063266;28;46180;-67
2023/11/14 02:30:27;;;;;;;;;6.67;1.33;;;;;12.34;87.88;100910.47;5059680;28;45264;-68
2023/11/14 02:32:52;;;;;;;;;0.67;0.00;;;;;12.35;87.90;100909.53;5057786;28;45356;-67
2023/11/14 02:35:18;;;;;;;;;1.00;1.00;;;;;12.34;88.15;100899.81;5058122;28;69111;-67
2023/11/14 02:37:45;;;;;;;;;2.00;2.00;;;;;12.35;88.05;100919.34;5059861;28;46119;-67
2023/11/14 02:40:10;;;;;;;;;2.00;2.00;;;;;12.36;88.14;100927.28;5059363;28;45875;-68
2023/11/14 02:42:36;;;;;;;;;0.67;0.67;;;;;12.36;87.81;100918.41;5059727;28;45722;-67
2023/11/14 02:45:03;;;;;;;;;2.00;1.00;;;;;12.34;88.04;100917.63;5058048;28;70604;-68
2023/11/14 02:47:28;;;;;;;;;2.00;1.00;;;;;12.34;88.33;100923.81;5057766;28;46214;-66
2023/11/14 02:50:20;;;;;;;;;4.00;1.00;;;;;12.34;88.06;100929.16;5058032;28;73096;-65
2023/11/14 02:52:47;;;;;;;;;5.00;2.00;;;;;12.35;88.46;100922.88;5071122;27;45593;-66
2023/11/14 02:55:12;;;;;;;;;3.33;2.00;;;;;12.34;88.43;100918.47;5059186;28;45505;-65
2023/11/14 02:57:38;;;;;;;;;2.00;1.00;;;;;12.35;88.54;100920.22;5056996;28;75731;-67
2023/11/14 03:00:04;;;;;;;;;4.00;1.00;;;;;12.35;88.46;100914.88;5058395;28;62874;-66
2023/11/14 03:02:29;;;;;;;;;0.00;0.00;;;;;12.37;88.61;100928.13;5061227;28;45490;-66
2023/11/14 03:04:54;;;;;;;;;1.00;1.00;;;;;12.37;88.70;100930.78;5057757;28;69285;-66
2023/11/14 03:07:20;;;;;;;;;3.33;1.00;;;;;12.36;88.57;100924.59;5060929;28;45451;-66
2023/11/14 03:09:45;;;;;;;;;1.00;1.00;;;;;12.37;88.56;100929.00;5041569;28;45671;-66
2023/11/14 03:12:11;;;;;;;;;1.33;1.00;;;;;12.36;88.53;100919.25;5040779;28;45422;-66
2023/11/14 03:14:36;;;;;;;;;2.00;2.00;;;;;12.36;88.68;100903.25;5065299;28;57433;-66
2023/11/14 03:17:01;;;;;;;;;6.33;2.00;;;;;12.35;88.74;100906.88;5058272;28;45541;-66
2023/11/14 03:19:29;;;;;;;;;1.00;1.00;;;;;12.37;88.60;100901.44;5059303;28;58742;-67
2023/11/14 03:21:54;;;;;;;;;4.67;1.00;;;;;12.37;88.57;100894.31;5062613;28;45284;-66
2023/11/14 03:24:21;;;;;;;;;1.67;1.00;;;;;12.37;88.83;100902.31;5055917;28;45439;-67
2023/11/14 03:26:46;;;;;;;;;0.67;0.67;;;;;12.38;88.71;100904.06;5058901;28;45479;-66
2023/11/14 03:29:11;;;;;;;;;1.33;1.00;;;;;12.37;88.96;100912.09;5058235;28;45413;-66
2023/11/14 03:31:38;;;;;;;;;2.00;0.67;;;;;12.38;88.86;100914.72;5058021;28;45484;-66
2023/11/14 03:34:07;;;;;;;;;1.00;1.00;;;;;12.41;88.90;100911.88;5057677;28;45542;-68
2023/11/14 03:36:33;;;;;;;;;1.00;1.00;;;;;12.41;88.99;100911.88;5056534;28;46574;-66
2023/11/14 03:38:59;;;;;;;;;0.33;0.33;;;;;12.43;88.95;100914.44;5058784;28;45417;-67
2023/11/14 03:41:24;;;;;;;;;1.33;1.00;;;;;12.43;88.72;100909.13;5058939;28;68079;-67
2023/11/14 03:43:49;;;;;;;;;3.33;1.67;;;;;12.43;88.96;100902.94;5058498;28;53889;-68
2023/11/14 03:46:15;;;;;;;;;3.00;1.00;;;;;12.44;88.83;100888.63;5056278;28;59658;-67
2023/11/14 03:48:41;;;;;;;;;6.00;1.00;;;;;12.45;88.90;100899.22;5059262;28;45402;-67
2023/11/14 03:51:09;;;;;;;;;1.00;1.00;;;;;12.45;89.06;100893.00;5058838;28;45862;-66
2023/11/14 03:53:35;;;;;;;;;1.00;1.00;;;;;12.44;89.01;100888.63;5059949;28;45296;-66
2023/11/14 03:56:00;;;;;;;;;2.00;1.00;;;;;12.44;88.92;100885.94;5053770;28;48404;-67
2023/11/14 03:58:26;;;;;;;;;1.67;0.67;;;;;12.45;89.02;100885.00;5057909;28;72194;-69
2023/11/14 04:00:51;;;;;;;;;3.67;1.33;;;;;12.46;88.99;100884.06;5057869;28;69300;-68
2023/11/14 04:03:16;;;;;;;;;1.00;1.00;;;;;12.47;88.98;100875.13;5057955;28;57796;-68
2023/11/14 04:05:42;;;;;;;;;1.00;1.00;;;;;12.48;89.10;100866.19;5057837;28;48287;-68
2023/11/14 04:08:07;;;;;;;;;0.67;0.67;;;;;12.50;89.01;100874.94;5056728;28;45327;-66
2023/11/14 04:10:33;;;;;;;;;3.33;0.33;;;;;12.51;89.27;100882.00;5056429;28;69143;-67
2023/11/14 04:12:58;;;;;;;;;2.00;0.00;;;;;12.49;89.16;100883.88;5057245;28;68307;-67
2023/11/14 04:15:23;;;;;;;;;1.67;0.67;;;;;12.50;88.77;100893.63;5057862;28;69928;-67
2023/11/14 04:17:49;;;;;;;;;1.00;1.00;;;;;12.48;88.77;100887.53;5057502;28;73194;-68
2023/11/14 04:20:14;;;;;;;;;2.00;0.00;;;;;12.45;89.05;100890.34;5057359;28;67964;-68
2023/11/14 04:22:39;;;;;;;;;2.00;1.00;;;;;12.41;89.06;100894.97;5061731;28;70389;-67
2023/11/14 04:25:05;;;;;;;;;8.00;1.00;;;;;12.36;89.33;100905.94;5056977;28;74572;-66
2023/11/14 04:27:30;;;;;;;;;2.33;1.00;;;;;12.32;89.42;100911.50;5058437;28;45488;-68
2023/11/14 04:29:56;;;;;;;;;3.00;1.00;;;;;12.27;89.88;100894.91;5057133;28;69080;-67
2023/11/14 04:32:21;;;;;;;;;1.00;1.00;;;;;12.24;89.64;100912.81;5057334;28;70457;-68
2023/11/14 04:34:46;;;;;;;;;0.67;0.33;;;;;12.20;90.07;100905.94;5056916;28;47935;-67
2023/11/14 04:37:12;;;;;;;;;1.33;0.00;;;;;12.17;90.24;100919.41;5060789;28;59884;-67
2023/11/14 04:39:37;;;;;;;;;3.00;1.00;;;;;12.14;90.23;100922.25;5061090;28;48534;-66
2023/11/14 04:42:05;;;;;;;;;4.00;1.67;;;;;12.13;90.22;100928.53;5059946;28;68276;-67
2023/11/14 04:44:30;;;;;;;;;1.00;1.00;;;;;12.11;90.09;100922.44;5061516;28;45488;-67
2023/11/14 04:46:55;;;;;;;;;0.67;0.67;;;;;12.09;90.65;100926.97;5061543;28;45313;-67
2023/11/14 04:49:21;;;;;;;;;0.00;0.00;;;;;12.08;90.73;100935.91;5060998;28;53846;-67
2023/11/14 04:51:46;;;;;;;;;1.00;1.00;;;;;12.06;90.71;100959.16;5061990;28;45353;-67
2023/11/14 04:54:11;;;;;;;;;2.67;2.00;;;;;12.05;90.82;100949.41;5060024;28;75694;-67
2023/11/14 04:56:37;;;;;;;;;3.00;2.00;;;;;12.05;90.92;100938.75;5061518;28;47143;-68
2023/11/14 04:59:02;;;;;;;;;3.67;0.67;;;;;12.05;90.80;100946.75;5061859;28;69442;-68
2023/11/14 05:01:28;;;;;;;;;1.00;1.00;;;;;12.05;91.10;100946.75;5060246;28;45447;-67
2023/11/14 05:03:53;;;;;;;;;0.00;0.00;;;;;12.05;90.91;100936.94;5061091;28;47014;-67
2023/11/14 05:06:18;;;;;;;;;3.00;2.00;;;;;12.07;91.13;100907.53;5061149;28;46479;-68
2023/11/14 05:08:44;;;;;;;;;2.00;1.00;;;;;12.10;91.21;100895.84;5056764;28;67844;-67
2023/11/14 05:11:09;;;;;;;;;1.33;1.33;;;;;12.14;91.27;100868.09;5060739;28;70370;-68
2023/11/14 05:13:36;;;;;;;;;4.00;1.00;;;;;12.17;91.25;100870.56;5058940;28;75705;-67
2023/11/14 05:16:02;;;;;;;;;2.67;1.00;;;;;12.21;91.22;100888.09;5059604;28;45955;-68
2023/11/14 05:18:27;;;;;;;;;2.00;0.33;;;;;12.23;91.34;100894.22;5062474;28;45532;-68
2023/11/14 05:20:52;;;;;;;;;2.00;2.00;;;;;12.24;91.25;100879.94;5058741;28;69357;-67
2023/11/14 05:23:17;;;;;;;;;1.67;1.00;;;;;12.27;91.37;100869.09;5061064;28;75557;-67
2023/11/14 05:25:43;;;;;;;;;1.33;1.33;;;;;12.29;91.64;100840.53;5059921;28;73418;-67
2023/11/14 05:28:08;;;;;;;;;2.67;2.00;;;;;12.31;91.56;100843.13;5059689;28;69506;-67
2023/11/14 05:30:35;;;;;;;;;2.33;2.33;;;;;12.32;91.67;100853.72;5061184;28;45437;-67
2023/11/14 05:33:00;;;;;;;;;0.67;0.67;;;;;12.33;91.46;100870.56;5060243;28;46489;-67
2023/11/14 05:35:26;;;;;;;;;2.00;1.00;;;;;12.35;92.07;100885.53;5058659;28;71865;-67
2023/11/14 05:37:51;;;;;;;;;2.67;2.00;;;;;12.36;92.00;100887.25;5059085;28;58917;-67
2023/11/14 05:40:16;;;;;;;;;2.33;1.67;;;;;12.37;92.14;100902.31;5060837;28;45469;-67
2023/11/14 05:42:42;;;;;;;;;1.67;1.67;;;;;12.38;91.91;100912.06;5066089;28;46351;-67
2023/11/14 05:45:08;;;;;;;;;1.67;1.33;;;;;12.38;92.09;100863.16;5064148;28;73210;-67
2023/11/14 05:47:33;;;;;;;;;3.33;2.00;;;;;12.39;92.01;100849.72;5059971;28;45421;-67
2023/11/14 05:49:59;;;;;;;;;1.00;1.00;;;;;12.41;92.10;100871.84;5059686;28;69943;-67
2023/11/14 05:52:24;;;;;;;;;3.33;2.00;;;;;12.43;91.81;100877.09;5064251;28;75663;-68
2023/11/14 05:54:49;;;;;;;;;2.33;1.00;;;;;12.41;92.05;100882.53;5059389;28;72182;-68
2023/11/14 05:57:16;;;;;;;;;2.33;1.00;;;;;12.42;92.01;100894.03;5056435;28;69266;-67
2023/11/14 05:59:42;;;;;;;;;5.00;2.00;;;;;12.41;91.67;100887.84;5059822;28;45398;-68
2023/11/14 06:02:09;;;;;;;;;2.00;2.00;;;;;12.44;91.47;100875.28;5059583;28;45564;-69
2023/11/14 06:04:35;;;;;;;;;1.33;1.00;;;;;12.41;91.62;100874.53;5060248;28;45613;-67
2023/11/14 06:07:00;;;;;;;;;1.33;0.67;;;;;12.43;91.44;100866.44;5059772;28;45440;-68
2023/11/14 06:09:25;;;;;;;;;2.00;1.00;;;;;12.44;91.02;100856.59;5063288;28;69061;-69
2023/11/14 06:11:51;;;;;;;;;1.00;1.00;;;;;12.45;91.05;100835.19;5056011;28;75528;-68
2023/11/14 06:14:16;;;;;;;;;7.00;2.33;;;;;12.46;90.83;100830.72;5057665;28;71449;-69
2023/11/14 06:16:41;;;;;;;;;2.00;1.00;;;;;12.47;90.70;100835.97;5049495;28;68303;-68
2023/11/14 06:19:07;;;;;;;;;2.00;2.00;;;;;12.48;90.54;100827.00;5061081;28;45479;-68
2023/11/14 06:21:33;;;;;;;;;2.33;2.00;;;;;12.50;90.49;100826.91;5056356;28;47081;-68
2023/11/14 06:23:58;;;;;;;;;2.67;1.67;;;;;12.51;89.96;100844.66;5058948;28;45467;-69
2023/11/14 06:26:23;;;;;;;;;1.67;1.00;;;;;12.50;89.74;100833.13;5057976;28;69121;-69
2023/11/14 06:28:49;;;;;;;;;2.00;2.00;;;;;12.53;89.43;100835.63;5059261;28;45401;-68
2023/11/14 06:31:14;;;;;;;;;4.33;2.67;;;;;12.53;89.65;100827.59;5056509;28;75729;-68
2023/11/14 06:33:39;;;;;;;;;1.00;1.00;;;;;12.54;89.82;100829.34;5057367;28;63877;-68
2023/11/14 06:36:05;;;;;;;;;4.67;2.00;;;;;12.55;89.52;100849.72;5058635;28;69167;-68
2023/11/14 06:38:30;;;;;;;;;2.33;1.00;;;;;12.56;89.65;100859.44;5058351;28;45367;-70
2023/11/14 06:40:56;;;;;;;;;2.33;1.00;;;;;12.58;89.71;100864.72;5058549;28;68658;-68
2023/11/14 06:43:21;;;;;;;;;1.00;1.00;;;;;12.58;89.47;100878.91;5054342;28;73124;-69
2023/11/14 06:45:46;;;;;;;;;3.00;2.00;;;;;12.59;89.69;100863.75;5058536;28;54179;-69
2023/11/14 06:48:12;;;;;;;;;2.00;2.00;;;;;12.58;89.92;100849.56;5057942;28;61430;-69
2023/11/14 06:50:38;;;;;;;;;0.67;0.67;;;;;12.57;89.91;100850.50;5057250;28;70611;-68
2023/11/14 06:53:06;;;;;;;;;2.00;2.00;;;;;12.58;90.00;100854.03;5058382;28;45288;-68
2023/11/14 06:55:32;;;;;;;;;5.00;1.33;;;;;12.58;90.00;100848.69;5057944;28;45424;-68
2023/11/14 06:57:58;;;;;;;;;3.00;1.00;;;;;12.58;90.21;100854.88;5057005;28;70687;-68
2023/11/14 07:00:24;;;;;;;;;3.00;1.00;;;;;12.58;90.57;100846.88;5059203;28;46231;-69
2023/11/14 07:02:49;;;;;;;;;3.00;2.00;;;;;12.60;90.66;100835.25;5057975;28;45659;-68
2023/11/14 07:05:14;;;;;;;;;2.33;1.00;;;;;12.58;90.88;100830.03;5040133;28;45304;-68
2023/11/14 07:07:40;;;;;;;;;2.00;2.00;;;;;12.59;90.68;100834.38;5056893;28;66084;-69
2023/11/14 07:10:09;;;;;;;;;3.33;1.00;;;;;12.60;90.81;100857.47;5057938;28;63416;-69
2023/11/14 07:12:34;;;;;;;;;4.00;1.00;;;;;12.62;90.61;100886.72;5058073;28;45310;-69
2023/11/14 07:15:00;;;;;;;;;1.00;1.00;;;;;12.65;90.51;100883.91;5052261;28;45503;-68
2023/11/14 07:17:26;;;;;;;;;3.00;2.00;;;;;12.64;90.92;100861.66;5054874;28;45532;-69
2023/11/14 07:19:53;;;;;;;;;2.00;2.00;;;;;12.66;90.56;100845.56;5067571;28;45666;-69
2023/11/14 07:22:18;;;;;;;;;2.33;1.00;;;;;12.66;90.59;100838.44;5061613;28;45470;-69
2023/11/14 07:24:44;;;;;;;;;4.33;1.00;;;;;12.66;90.90;100838.44;5053244;28;46177;-70
2023/11/14 07:27:09;;;;;;;;;2.33;1.00;;;;;12.69;90.92;100832.06;5054225;28;56497;-69
2023/11/14 07:29:34;;;;;;;;;2.67;1.00;;;;;12.70;90.88;100834.63;5054832;28;46064;-69
2023/11/14 07:32:00;;;;;;;;;3.00;3.00;;;;;12.71;90.66;100847.03;5057189;28;73470;-66
2023/11/14 07:34:25;;;;;;;;;2.00;1.00;;;;;12.73;90.68;100849.59;5059296;28;69034;-65
2023/11/14 07:36:51;;;;;;;;;4.00;3.00;;;;;12.74;90.61;100854.00;5063416;28;45491;-66
2023/11/14 07:39:17;;;;;;;;;4.00;1.00;;;;;12.76;90.72;100861.91;5089032;27;46075;-65
2023/11/14 07:41:43;;;;;;;;;4.67;2.33;;;;;12.78;90.42;100857.34;5055554;28;46296;-68
2023/11/14 07:44:09;;;;;;;;;3.33;2.00;;;;;12.75;90.95;100861.06;5054661;28;45703;-67
2023/11/14 07:46:36;;;;;;;;;1.67;1.00;;;;;12.77;90.80;100866.31;5060458;28;45474;-66
2023/11/14 07:49:01;;;;;;;;;1.67;1.67;;;;;12.79;90.98;100875.06;5056193;28;46386;-66
2023/11/14 07:51:27;;;;;;;;;1.00;1.00;;;;;12.81;91.09;100870.50;5056440;28;73138;-66
2023/11/14 07:53:53;;;;;;;;;2.00;1.00;;;;;12.83;90.79;100877.47;5056340;28;69339;-66
2023/11/14 07:56:19;;;;;;;;;4.00;4.00;;;;;12.85;91.00;100877.38;5057782;28;45290;-66
2023/11/14 07:58:44;;;;;;;;;2.00;2.00;;;;;12.86;90.68;100874.63;5052680;28;46801;-66
2023/11/14 08:01:10;;;;;;;;;2.33;2.33;;;;;12.88;91.19;100878.06;5064171;28;71120;-66
2023/11/14 08:03:35;;;;;;;;;3.00;3.00;;;;;12.89;91.24;100898.50;5056937;28;67422;-66
2023/11/14 08:06:00;;;;;;;;;1.67;1.67;;;;;12.93;90.83;100896.47;5060149;28;69441;-67
2023/11/14 08:08:26;;;;;;;;;2.00;2.00;;;;;12.94;90.97;100870.66;5053352;28;75456;-66
2023/11/14 08:10:51;;;;;;;;;7.33;6.67;;;;;12.95;91.23;100899.94;5058854;28;45333;-67
2023/11/14 08:13:17;;;;;;;;;4.67;3.00;;;;;12.96;90.93;100904.31;5060211;28;68294;-66
2023/11/14 08:15:43;;;;;;;;;3.33;3.33;;;;;12.97;91.40;100919.41;5062558;28;45718;-65
2023/11/14 08:18:08;;;;;;;;;3.67;3.00;;;;;13.00;91.07;100905.88;5061098;28;46098;-65
2023/11/14 08:20:34;;;;;;;;;1.33;1.33;;;;;13.01;91.35;100902.25;5066998;28;45528;-66
2023/11/14 08:22:59;;;;;;;;;4.00;4.00;;;;;13.02;91.74;100885.28;5092955;27;62982;-66
2023/11/14 08:25:25;;;;;;;;;3.33;2.67;;;;;13.04;91.98;100869.16;5063792;28;45567;-66
2023/11/14 08:27:50;;;;;;;;;4.00;3.00;;;;;13.04;91.64;100886.03;5044439;28;47147;-67
2023/11/14 08:30:16;;;;;;;;;6.00;4.00;;;;;13.04;91.93;100907.41;5062072;28;45397;-67
2023/11/14 08:32:45;;;;;;;;;3.33;2.00;;;;;13.06;91.89;100913.53;5093170;27;45775;-65
2023/11/14 08:35:11;;;;;;;;;2.67;1.00;;;;;13.08;92.01;100911.59;5043917;28;45495;-67
2023/11/14 08:37:37;;;;;;;;;3.00;2.00;;;;;13.10;92.04;100884.81;5064671;28;45768;-66
2023/11/14 08:40:03;;;;;;;;;4.00;2.33;;;;;13.09;92.10;100861.75;5060905;28;45506;-66
2023/11/14 08:42:29;;;;;;;;;5.33;1.33;;;;;13.06;92.08;100836.09;5074670;27;45469;-66
2023/11/14 08:44:55;;;;;;;;;1.00;1.00;;;;;13.06;91.88;100841.44;5063066;28;45401;-65
2023/11/14 08:47:21;;;;;;;;;3.00;1.00;;;;;13.08;92.25;100831.50;5062487;28;45540;-66
2023/11/14 08:49:46;;;;;;;;;3.33;2.00;;;;;13.10;92.54;100819.88;5068272;28;45644;-66
2023/11/14 08:52:12;;;;;;;;;0.00;0.00;;;;;13.13;92.34;100811.66;5060488;28;69077;-66
2023/11/14 08:54:38;;;;;;;;;2.33;1.67;;;;;13.14;92.46;100802.69;5060096;28;45327;-65
2023/11/14 08:57:04;;;;;;;;;1.00;0.00;;;;;13.19;92.48;100800.59;5060179;28;45406;-66
2023/11/14 08:59:30;;;;;;;;;1.67;1.67;;;;;13.22;92.52;100803.13;5063612;28;45510;-66
2023/11/14 09:01:56;;;;;;;;;1.33;1.00;;;;;13.23;92.61;100781.66;5061246;28;45742;-67
2023/11/14 09:04:21;;;;;;;;;3.00;2.00;;;;;13.25;92.44;100786.88;5064942;28;45398;-65
2023/11/14 09:06:46;;;;;;;;;4.00;2.00;;;;;13.24;91.97;100774.47;5060158;28;74406;-66
2023/11/14 09:09:12;;;;;;;;;2.00;2.00;;;;;13.22;92.35;100771.91;5059674;28;45673;-65
2023/11/14 09:11:38;;;;;;;;;6.00;1.00;;;;;13.24;92.63;100763.78;5064691;28;45560;-66
2023/11/14 09:14:03;;;;;;;;;2.00;2.00;;;;;13.26;92.26;100755.69;5075004;27;45499;-63
2023/11/14 09:16:28;;;;;;;;;1.00;1.00;;;;;13.29;92.51;100751.00;5059546;28;58460;-63
2023/11/14 09:18:54;;;;;;;;;1.00;1.00;;;;;13.33;92.75;100765.88;5056989;28;75280;-63
2023/11/14 09:21:20;;;;;;;;;4.00;1.00;;;;;13.35;92.81;100782.69;5060460;28;45449;-64
2023/11/14 09:23:45;;;;;;;;;1.67;1.33;;;;;13.38;92.13;100782.53;5064093;28;45494;-63
2023/11/14 09:26:13;;;;;;;;;1.33;1.00;;;;;13.42;92.03;100790.38;5054488;28;74433;-63
2023/11/14 09:28:38;;;;;;;;;0.33;0.33;;;;;13.44;91.59;100791.13;5059609;28;45344;-62
2023/11/14 09:31:04;;;;;;;;;3.00;2.00;;;;;13.44;91.59;100791.13;5058896;28;45432;-62
2023/11/14 09:33:30;;;;;;;;;1.00;1.00;;;;;13.45;91.51;100790.16;5060908;28;45481;-62
2023/11/14 09:35:55;;;;;;;;;2.00;0.00;;;;;13.42;91.27;100777.00;5092985;27;46182;-63
2023/11/14 09:38:22;;;;;;;;;1.00;1.00;;;;;13.43;90.99;100768.03;5059638;28;45744;-63
2023/11/14 09:40:48;;;;;;;;;1.67;1.67;;;;;13.42;91.06;100750.28;5041597;28;45335;-63
2023/11/14 09:43:13;;;;;;;;;1.00;0.00;;;;;13.45;91.35;100766.13;5058729;28;46306;-62
2023/11/14 09:45:41;;;;;;;;;2.33;2.00;;;;;13.46;91.10;100768.69;5059508;28;73242;-62
2023/11/14 09:48:08;;;;;;;;;2.00;2.00;;;;;13.46;91.29;100768.69;5091192;27;45589;-62
2023/11/14 09:50:35;;;;;;;;;1.00;1.00;;;;;13.45;90.88;100771.47;5060746;28;45437;-62
2023/11/14 09:53:04;;;;;;;;;8.00;1.00;;;;;13.47;90.67;100769.56;5059445;28;45449;-63
2023/11/14 09:55:29;;;;;;;;;2.33;1.00;;;;;13.45;91.17;100766.13;5059996;28;46607;-62
2023/11/14 09:57:55;;;;;;;;;3.00;1.00;;;;;13.47;90.89;100765.06;5061432;28;47595;-62
2023/11/14 10:00:22;;;;;;;;;2.00;1.00;;;;;13.49;90.58;100775.66;5058878;28;45522;-62
2023/11/14 10:02:47;;;;;;;;;1.33;1.33;;;;;13.50;90.21;100769.38;5091795;27;45518;-62
2023/11/14 10:05:12;;;;;;;;;2.00;2.00;;;;;13.52;89.82;100765.66;5058033;28;74344;-63
2023/11/14 10:07:38;;;;;;;;;0.00;0.00;;;;;13.56;90.40;100771.66;5060023;28;45719;-62
2023/11/14 10:10:05;;;;;;;;;2.00;1.00;;;;;13.54;89.51;100765.53;5061267;28;69231;-63
2023/11/14 10:12:35;;;;;;;;;3.00;3.00;;;;;13.57;89.72;100768.00;5042668;28;45632;-63
2023/11/14 10:15:00;;;;;;;;;2.00;1.00;;;;;13.59;90.17;100767.94;5061835;28;46173;-63
2023/11/14 10:17:31;;;;;;;;;1.00;1.00;;;;;13.58;89.48;100769.72;5059166;28;45698;-62
2023/11/14 10:20:00;;;;;;;;;2.00;0.67;;;;;13.57;89.53;100765.34;5059227;28;46282;-62
2023/11/14 10:22:27;;;;;;;;;1.00;1.00;;;;;13.58;89.92;100767.06;5057841;28;45371;-62
2023/11/14 10:24:52;;;;;;;;;0.67;0.67;;;;;13.59;89.64;100755.41;5057938;28;45528;-63
2023/11/14 10:27:35;;;;;;;;;3.67;1.00;;;;;13.60;89.44;100751.81;5055384;28;45460;-63
2023/11/14 10:30:00;;;;;;;;;4.33;1.00;;;;;13.61;89.75;100763.34;5058145;28;45492;-63
2023/11/14 10:32:27;;;;;;;;;1.00;1.00;;;;;13.61;89.34;100755.31;5059927;28;45514;-63
2023/11/14 10:34:52;;;;;;;;;2.33;2.33;;;;;13.63;89.21;100754.25;5057302;28;45627;-63
2023/11/14 10:37:34;;;;;;;;;2.00;2.00;;;;;13.67;89.59;100753.09;5060332;28;45562;-63
2023/11/14 10:40:02;;;;;;;;;2.00;1.00;;;;;13.69;89.41;100748.53;5054126;28;45539;-63
2023/11/14 10:42:28;;;;;;;;;2.67;2.00;;;;;13.69;88.63;100745.88;5060471;28;45916;-63
2023/11/14 10:44:58;;;;;;;;;1.00;1.00;;;;;13.68;88.54;100736.13;5056275;28;47541;-63
2023/11/14 10:47:40;;;;;;;;;3.00;3.00;;;;;13.68;88.17;100741.47;5057322;28;45534;-62
2023/11/14 10:50:23;;;;;;;;;1.00;0.00;;;;;13.68;88.45;100757.50;5060399;28;45676;-63
2023/11/14 10:52:50;;;;;;;;;1.33;1.00;;;;;13.67;88.46;100749.59;5061790;28;45471;-63
2023/11/14 10:55:15;;;;;;;;;1.33;1.33;;;;;13.66;87.60;100750.53;5060044;28;46204;-63
2023/11/14 10:57:41;;;;;;;;;1.00;1.00;;;;;13.62;88.23;100754.38;5042071;28;45826;-63
2023/11/14 11:00:10;;;;;;;;;1.00;1.00;;;;;13.60;88.22;100745.56;5057855;28;69192;-63
2023/11/14 11:02:39;;;;;;;;;3.67;1.67;;;;;13.54;87.65;100745.00;5063171;28;45401;-63
2023/11/14 11:05:05;;;;;;;;;0.00;0.00;;;;;13.51;88.16;100749.72;5057108;28;45629;-63
2023/11/14 11:07:30;;;;;;;;;1.67;1.33;;;;;13.45;88.43;100745.59;5056866;28;45372;-63
2023/11/14 11:09:56;;;;;;;;;2.33;0.67;;;;;13.39;88.55;100746.84;5055576;28;45577;-63
2023/11/14 11:12:23;;;;;;;;;1.00;1.00;;;;;13.37;88.62;100738.06;5054262;28;68469;-63
2023/11/14 11:14:49;;;;;;;;;2.33;1.33;;;;;13.35;88.88;100736.41;5059732;28;45685;-63
2023/11/14 11:17:40;;;;;;;;;1.00;1.00;;;;;13.35;89.05;100742.63;5056301;28;45505;-63
2023/11/14 11:20:09;;;;;;;;;0.00;0.00;;;;;13.35;89.18;100736.41;5059403;28;45430;-63